Time;durP1;ratioP1;P1;durP2;ratioP2;P2;SDS_P1;SDS_P2;PMS_P1;PMS_P2;Temp;Humidity;BMP_temperature;BMP_pressure;BME280_temperature;BME280_humidity;BME280_pressure;Samples;Min_cycle;Max_cycle;Signal;HPM_P1;HPM_P2
2021/12/01 00:00:01;;;;;;;12.80;4.03;;;;;;;5.35;100.00;99571.28;4941858;28;20046;-85
2021/12/01 00:02:27;;;;;;;5.82;3.13;;;;;;;5.33;100.00;99567.84;4940029;28;20493;-85
2021/12/01 00:04:57;;;;;;;7.72;2.72;;;;;;;5.32;100.00;99564.38;4941442;28;20051;-86
2021/12/01 00:07:23;;;;;;;10.15;3.72;;;;;;;5.31;100.00;99554.88;4942732;28;20054;-86
2021/12/01 00:09:51;;;;;;;7.18;3.22;;;;;;;5.27;100.00;99546.22;4943396;28;20776;-86
2021/12/01 00:12:18;;;;;;;10.50;3.83;;;;;;;5.23;100.00;99539.34;4956997;28;20078;-86
2021/12/01 00:14:45;;;;;;;7.57;3.08;;;;;;;5.21;100.00;99532.44;4940902;28;20902;-85
2021/12/01 00:17:20;;;;;;;11.63;4.32;;;;;;;5.16;100.00;99529.84;4959648;28;20502;-86
2021/12/01 00:19:46;;;;;;;16.73;3.95;;;;;;;5.13;100.00;99517.75;4960364;28;20074;-86
2021/12/01 00:22:13;;;;;;;9.50;3.83;;;;;;;5.10;100.00;99507.41;4960159;28;20058;-86
2021/12/01 00:24:39;;;;;;;7.90;3.40;;;;;;;5.07;100.00;99499.66;4939491;28;20059;-86
2021/12/01 00:27:06;;;;;;;8.70;3.15;;;;;;;5.07;100.00;99491.00;4941492;28;20114;-85
2021/12/01 00:29:42;;;;;;;7.00;3.28;;;;;;;5.05;100.00;99488.41;4943940;28;20042;-85
2021/12/01 00:32:09;;;;;;;8.18;3.60;;;;;;;5.03;100.00;99479.78;4942130;28;20062;-85
2021/12/01 00:34:36;;;;;;;8.40;3.65;;;;;;;5.03;100.00;99474.59;4943080;28;20055;-85
2021/12/01 00:37:05;;;;;;;8.18;4.03;;;;;;;5.02;100.00;99478.06;4943160;28;20061;-86
2021/12/01 00:39:32;;;;;;;6.10;4.30;;;;;;;5.02;100.00;99464.22;4941166;28;20043;-85
2021/12/01 00:42:00;;;;;;;8.18;3.00;;;;;;;5.00;100.00;99456.44;4955965;28;20081;-86
2021/12/01 00:44:33;;;;;;;9.10;3.42;;;;;;;4.99;100.00;99452.13;4958797;28;20065;-86
2021/12/01 00:47:05;;;;;;;5.77;3.83;;;;;;;4.99;100.00;99448.69;4941682;28;20078;-85
2021/12/01 00:49:35;;;;;;;11.30;3.60;;;;;;;4.99;100.00;99452.13;4940749;28;20137;-86
2021/12/01 00:52:03;;;;;;;5.32;3.13;;;;;;;5.01;100.00;99431.38;4942930;28;20156;-86
2021/12/01 00:54:30;;;;;;;4.78;3.13;;;;;;;5.00;100.00;99424.47;4940471;28;20616;-85
2021/12/01 00:56:56;;;;;;;5.95;3.25;;;;;;;5.00;100.00;99427.06;4944917;28;20055;-85
2021/12/01 00:59:23;;;;;;;6.18;3.70;;;;;;;4.97;100.00;99418.41;4942462;28;20050;-86
2021/12/01 01:01:50;;;;;;;5.35;3.40;;;;;;;4.96;100.00;99411.50;4941757;28;20113;-86
2021/12/01 01:04:17;;;;;;;6.78;2.78;;;;;;;4.93;100.00;99408.94;4939779;28;20046;-85
2021/12/01 01:06:43;;;;;;;8.00;3.22;;;;;;;4.92;100.00;99399.44;4937378;28;20162;-85
2021/12/01 01:09:11;;;;;;;4.18;3.42;;;;;;;4.91;100.00;99392.50;4956295;28;20282;-85
2021/12/01 01:17:18;;;;;;;8.45;3.20;;;;;;;4.92;100.00;99372.66;4957901;28;20099;-86
2021/12/01 01:19:45;;;;;;;7.25;2.85;;;;;;;4.92;100.00;99368.31;4972052;28;20137;-85
2021/12/01 01:22:12;;;;;;;6.20;2.70;;;;;;;4.94;100.00;99357.94;4943258;28;20162;-86
2021/12/01 01:24:38;;;;;;;4.93;2.58;;;;;;;4.95;100.00;99357.06;4942111;28;20058;-85
2021/12/01 01:27:05;;;;;;;4.03;2.35;;;;;;;4.95;100.00;99346.69;4937417;28;20509;-86
2021/12/01 01:29:36;;;;;;;3.53;2.63;;;;;;;4.95;100.00;99338.91;4940511;28;20094;-86
2021/12/01 01:32:03;;;;;;;7.90;2.70;;;;;;;4.96;100.00;99338.88;4937999;28;20035;-86
2021/12/01 01:34:30;;;;;;;2.70;2.45;;;;;;;4.97;100.00;99329.41;4939364;28;20054;-86
2021/12/01 01:36:56;;;;;;;4.35;2.28;;;;;;;5.01;100.00;99332.84;4938081;28;20050;-86
2021/12/01 01:39:23;;;;;;;3.83;2.33;;;;;;;5.04;100.00;99328.47;4952482;28;20079;-85
2021/12/01 01:41:50;;;;;;;3.92;2.50;;;;;;;5.05;100.00;99325.00;4955728;28;20054;-86
2021/12/01 01:44:16;;;;;;;2.58;2.08;;;;;;;5.05;100.00;99316.38;4938366;28;20101;-86
2021/12/01 01:46:43;;;;;;;5.60;3.15;;;;;;;5.06;100.00;99310.28;4955390;28;20208;-85
2021/12/01 01:49:16;;;;;;;4.70;2.70;;;;;;;5.08;100.00;99305.97;4972170;28;20035;-86
2021/12/01 01:51:43;;;;;;;3.15;2.85;;;;;;;5.05;100.00;99299.06;4938175;28;20054;-86
2021/12/01 01:54:11;;;;;;;5.72;3.28;;;;;;;5.05;100.00;99288.69;4939650;28;21441;-85
2021/12/01 01:56:39;;;;;;;5.13;3.00;;;;;;;5.03;100.00;99277.50;4956088;28;20050;-86
2021/12/01 01:59:06;;;;;;;3.28;3.00;;;;;;;5.04;100.00;99268.81;4956981;28;20950;-86
2021/12/01 02:01:44;;;;;;;3.45;3.13;;;;;;;5.04;100.00;99263.63;4947638;28;20051;-85
2021/12/01 02:04:15;;;;;;;4.95;3.05;;;;;;;5.06;100.00;99267.06;4926966;28;20494;-86
2021/12/01 02:06:43;;;;;;;4.15;2.60;;;;;;;5.04;100.00;99255.00;4943337;28;20065;-86
2021/12/01 02:09:10;;;;;;;3.80;3.15;;;;;;;5.06;100.00;99245.44;4941657;28;20438;-86
2021/12/01 02:11:40;;;;;;;6.00;3.00;;;;;;;5.07;100.00;99253.25;4933004;28;20964;-86
2021/12/01 02:14:07;;;;;;;3.42;2.55;;;;;;;5.06;100.00;99228.16;4933461;28;20078;-86
2021/12/01 02:16:35;;;;;;;2.88;2.58;;;;;;;5.05;100.00;99223.84;4933285;28;20114;-87
2021/12/01 02:19:02;;;;;;;3.80;2.33;;;;;;;5.09;100.00;99219.50;4934766;28;20063;-87
2021/12/01 02:21:30;;;;;;;3.72;2.35;;;;;;;5.11;100.00;99210.81;4946735;28;20055;-86
2021/12/01 02:24:06;;;;;;;2.10;1.83;;;;;;;5.12;100.00;99202.19;4944011;28;20409;-85
2021/12/01 02:26:38;;;;;;;1.58;1.48;;;;;;;5.14;100.00;99203.00;4931635;28;20058;-85
2021/12/01 02:29:09;;;;;;;2.67;1.90;;;;;;;5.14;100.00;99190.03;4927140;28;20046;-84
2021/12/01 02:31:36;;;;;;;2.22;1.90;;;;;;;5.16;100.00;99184.81;4960628;28;20058;-86
2021/12/01 02:34:09;;;;;;;2.17;1.98;;;;;;;5.18;100.00;99177.91;4940505;28;20152;-87
2021/12/01 02:36:37;;;;;;;3.42;2.10;;;;;;;5.21;100.00;99172.66;4945354;28;20082;-85
2021/12/01 02:39:11;;;;;;;1.77;1.63;;;;;;;5.23;100.00;99164.88;4958703;28;20045;-86
2021/12/01 02:41:39;;;;;;;1.98;1.77;;;;;;;5.25;100.00;99155.34;4946836;28;20050;-85
2021/12/01 02:44:08;;;;;;;2.30;2.10;;;;;;;5.25;100.00;99145.84;4930628;28;20050;-85
2021/12/01 02:46:35;;;;;;;1.52;1.42;;;;;;;5.26;100.00;99139.75;4959756;28;20046;-84
2021/12/01 02:49:02;;;;;;;6.03;2.08;;;;;;;5.28;100.00;99134.56;4931097;28;20054;-85
2021/12/01 02:51:31;;;;;;;2.00;1.65;;;;;;;5.29;100.00;99112.91;4959240;28;20058;-86
2021/12/01 02:53:59;;;;;;;4.68;1.63;;;;;;;5.32;100.00;99110.28;4945511;28;20648;-85
2021/12/01 02:56:26;;;;;;;1.60;1.50;;;;;;;5.35;100.00;99104.19;4946361;28;20050;-84
2021/12/01 02:58:53;;;;;;;3.05;1.40;;;;;;;5.38;100.00;99098.97;4943639;28;20050;-85
2021/12/01 03:01:23;;;;;;;1.75;1.65;;;;;;;5.40;100.00;99095.47;4978849;28;20073;-85
2021/12/01 03:03:51;;;;;;;4.13;1.55;;;;;;;5.43;100.00;99085.03;4979925;28;20590;-86
2021/12/01 03:06:20;;;;;;;2.15;1.42;;;;;;;5.46;100.00;99079.81;4964118;28;20049;-85
2021/12/01 03:08:48;;;;;;;0.80;0.75;;;;;;;5.51;100.00;99073.72;4982632;28;20042;-86
2021/12/01 03:11:16;;;;;;;1.70;1.60;;;;;;;5.55;100.00;99070.19;4976245;28;20060;-85
2021/12/01 03:13:43;;;;;;;1.17;1.00;;;;;;;5.58;100.00;99065.81;4980451;28;20136;-86
2021/12/01 03:16:09;;;;;;;2.47;1.25;;;;;;;5.60;100.00;99050.22;4978792;28;20121;-85
2021/12/01 03:18:36;;;;;;;0.80;0.80;;;;;;;5.64;100.00;99051.88;4982009;28;20042;-86
2021/12/01 03:21:03;;;;;;;0.93;0.90;;;;;;;5.67;100.00;99040.59;4966847;28;20053;-85
2021/12/01 03:23:30;;;;;;;0.90;0.85;;;;;;;5.71;100.00;99045.72;4962473;28;20108;-85
2021/12/01 03:25:57;;;;;;;1.95;0.75;;;;;;;5.75;100.00;99042.19;4981312;28;20053;-84
2021/12/01 03:28:27;;;;;;;0.52;0.52;;;;;;;5.80;100.00;99039.53;4981185;28;20052;-88
2021/12/01 03:30:53;;;;;;;1.70;1.08;;;;;;;5.85;100.00;99029.06;4965351;28;20054;-86
2021/12/01 03:33:23;;;;;;;0.60;0.60;;;;;;;5.89;100.00;99025.53;4981708;28;20752;-85
2021/12/01 03:35:52;;;;;;;0.50;0.50;;;;;;;5.96;100.00;99014.19;4978816;28;20046;-85
2021/12/01 03:38:23;;;;;;;0.52;0.52;;;;;;;6.02;100.00;99014.09;4980643;28;20690;-85
2021/12/01 03:40:50;;;;;;;0.75;0.75;;;;;;;6.13;100.00;99006.97;4995240;28;20857;-86
2021/12/01 03:43:20;;;;;;;1.05;0.90;;;;;;;6.30;100.00;99011.03;4965631;28;20057;-85
2021/12/01 03:45:46;;;;;;;0.43;0.43;;;;;;;6.45;100.00;98999.47;4969430;28;20052;-84
2021/12/01 03:48:15;;;;;;;0.82;0.82;;;;;;;6.58;100.00;98992.31;4973444;28;20069;-86
2021/12/01 03:50:42;;;;;;;0.90;0.90;;;;;;;6.72;100.00;98990.28;4961102;28;20762;-85
2021/12/01 03:53:09;;;;;;;1.48;1.38;;;;;;;6.84;100.00;98993.53;4961056;28;20060;-86
2021/12/01 03:55:39;;;;;;;1.52;1.40;;;;;;;6.97;100.00;98974.19;4964083;28;20618;-86
2021/12/01 03:58:06;;;;;;;2.45;1.20;;;;;;;7.10;100.00;98961.75;4978193;28;20045;-85
2021/12/01 04:00:32;;;;;;;1.77;1.67;;;;;;;7.17;100.00;98972.88;4978531;28;20118;-86
2021/12/01 04:02:59;;;;;;;2.20;1.98;;;;;;;7.22;100.00;98964.13;4964503;28;20061;-84
2021/12/01 04:05:28;;;;;;;1.80;1.70;;;;;;;7.31;100.00;98949.16;4962764;28;20054;-86
2021/12/01 04:07:55;;;;;;;1.17;1.17;;;;;;;7.35;100.00;98953.41;4979871;28;20476;-85
2021/12/01 04:10:23;;;;;;;1.70;1.60;;;;;;;7.45;100.00;98941.88;4963018;28;20050;-86
2021/12/01 04:12:50;;;;;;;2.03;1.92;;;;;;;7.47;100.00;98941.84;4972915;28;20057;-85
2021/12/01 04:15:17;;;;;;;1.95;1.73;;;;;;;7.50;100.00;98937.44;4976646;28;21473;-85
2021/12/01 04:17:48;;;;;;;2.03;1.92;;;;;;;7.51;100.00;98936.53;4962081;28;20133;-86
2021/12/01 04:20:16;;;;;;;1.67;1.58;;;;;;;7.52;100.00;98935.66;4963013;28;20046;-86
2021/12/01 04:22:48;;;;;;;1.40;1.30;;;;;;;7.55;100.00;98925.16;4976150;28;20703;-85
2021/12/01 04:25:15;;;;;;;2.13;1.25;;;;;;;7.55;100.00;98932.13;4960305;28;20043;-84
2021/12/01 04:27:42;;;;;;;1.58;1.55;;;;;;;7.53;100.00;98921.72;4977812;28;20058;-86
2021/12/01 04:30:15;;;;;;;1.50;1.05;;;;;;;7.58;100.00;98917.25;4977018;28;20045;-85
2021/12/01 04:32:42;;;;;;;1.15;1.13;;;;;;;7.59;100.00;98921.56;4960242;28;20177;-85
2021/12/01 04:35:10;;;;;;;0.95;0.95;;;;;;;7.61;100.00;98917.19;4994438;28;20520;-85
2021/12/01 04:37:37;;;;;;;0.90;0.90;;;;;;;7.64;100.00;98902.38;4956405;28;20050;-85
2021/12/01 04:40:07;;;;;;;1.15;1.15;;;;;;;7.62;100.00;98877.22;4964043;28;20698;-86
2021/12/01 04:42:36;;;;;;;0.80;0.80;;;;;;;7.69;100.00;98900.50;4974305;28;20096;-85
2021/12/01 04:45:13;;;;;;;0.70;0.70;;;;;;;7.69;100.00;98897.91;4980623;28;20113;-85
2021/12/01 04:47:42;;;;;;;0.60;0.60;;;;;;;7.69;100.00;98885.75;4971350;28;20078;-85
2021/12/01 04:50:10;;;;;;;0.47;0.47;;;;;;;7.68;100.00;98896.19;4940133;28;20047;-85
2021/12/01 04:52:36;;;;;;;0.80;0.80;;;;;;;7.64;100.00;98889.34;4945120;28;20042;-85
2021/12/01 04:55:05;;;;;;;1.10;0.57;;;;;;;7.62;100.00;98885.03;4959119;28;20549;-85
2021/12/01 04:57:32;;;;;;;0.38;0.30;;;;;;;7.62;100.00;98889.41;4957784;28;20051;-86
2021/12/01 05:00:01;;;;;;;0.35;0.35;;;;;;;7.62;100.00;98859.00;4945877;28;20046;-84
2021/12/01 05:02:27;;;;;;;0.20;0.20;;;;;;;7.61;100.00;98862.50;4955752;28;20097;-84
2021/12/01 05:04:54;;;;;;;1.77;0.35;;;;;;;7.63;100.00;98846.84;4941866;28;20053;-85
2021/12/01 05:07:21;;;;;;;0.55;0.55;;;;;;;7.66;100.00;98856.31;4940564;28;20093;-87
2021/12/01 05:09:47;;;;;;;0.43;0.43;;;;;;;7.69;100.00;98843.22;4962080;28;20137;-85
2021/12/01 05:12:14;;;;;;;0.30;0.30;;;;;;;7.68;100.00;98837.16;4960419;28;20957;-83
2021/12/01 05:14:41;;;;;;;1.33;0.20;;;;;;;7.69;100.00;98832.78;4938421;28;20109;-83
2021/12/01 05:17:08;;;;;;;1.25;0.57;;;;;;;7.72;100.00;98832.72;4956817;28;20658;-84
2021/12/01 05:19:36;;;;;;;0.52;0.50;;;;;;;7.67;100.00;98827.63;4954535;28;20125;-85
2021/12/01 05:22:05;;;;;;;0.40;0.40;;;;;;;7.61;100.00;98822.56;4944773;28;20097;-83
2021/12/01 05:24:32;;;;;;;0.38;0.38;;;;;;;7.60;100.00;98821.72;4957017;28;20050;-84
2021/12/01 05:27:04;;;;;;;0.30;0.30;;;;;;;7.57;100.00;98810.53;4959518;28;20031;-84
2021/12/01 05:29:32;;;;;;;0.30;0.30;;;;;;;7.56;100.00;98804.50;4960445;28;20110;-83
2021/12/01 05:31:59;;;;;;;0.30;0.30;;;;;;;7.57;100.00;98797.53;4939743;28;20034;-84
2021/12/01 05:34:27;;;;;;;0.45;0.20;;;;;;;7.53;100.00;98807.16;4956883;28;20054;-84
2021/12/01 05:36:55;;;;;;;0.25;0.25;;;;;;;7.51;100.00;98792.47;4941088;28;20046;-84
2021/12/01 05:39:21;;;;;;;0.95;0.30;;;;;;;7.47;100.00;98796.91;4938964;28;20546;-83
2021/12/01 05:41:50;;;;;;;0.10;0.10;;;;;;;7.44;100.00;98786.56;4943712;28;20058;-83
2021/12/01 05:44:16;;;;;;;1.10;0.20;;;;;;;7.41;100.00;98790.09;4940142;28;20057;-84
2021/12/01 05:46:43;;;;;;;0.10;0.10;;;;;;;7.41;100.00;98773.66;4943987;28;20113;-83
2021/12/01 05:49:10;;;;;;;0.40;0.10;;;;;;;7.43;100.00;98771.84;4960867;28;20046;-83
2021/12/01 05:51:43;;;;;;;0.75;0.20;;;;;;;7.42;100.00;98773.59;4964502;28;20049;-85
2021/12/01 05:54:11;;;;;;;0.10;0.10;;;;;;;7.43;100.00;98764.91;4984897;28;20049;-84
2021/12/01 05:56:37;;;;;;;1.13;0.10;;;;;;;7.43;100.00;98767.50;4965778;28;20052;-83
2021/12/01 05:59:09;;;;;;;0.20;0.20;;;;;;;7.44;100.00;98739.72;4965388;28;20143;-83
2021/12/01 06:01:35;;;;;;;0.22;0.20;;;;;;;7.41;100.00;98758.88;4968346;28;20170;-85
2021/12/01 06:04:05;;;;;;;0.10;0.10;;;;;;;7.43;100.00;98743.19;4966744;28;20181;-84
2021/12/01 06:06:35;;;;;;;0.10;0.10;;;;;;;7.43;100.00;98745.81;4982415;28;20057;-84
2021/12/01 06:09:04;;;;;;;0.13;0.13;;;;;;;7.44;100.00;98737.09;4966193;28;20052;-84
2021/12/01 06:11:33;;;;;;;0.20;0.10;;;;;;;7.42;100.00;98751.94;4971215;28;20050;-84
2021/12/01 06:14:01;;;;;;;0.20;0.20;;;;;;;7.41;100.00;98742.41;4982301;28;20042;-85
2021/12/01 06:16:27;;;;;;;0.20;0.20;;;;;;;7.38;100.00;98724.25;4980716;28;20042;-85
2021/12/01 06:18:54;;;;;;;0.10;0.10;;;;;;;7.34;100.00;98722.63;4985180;28;20250;-83
2021/12/01 06:21:21;;;;;;;0.10;0.10;;;;;;;7.27;100.00;98712.41;4980705;28;20057;-83
2021/12/01 06:23:48;;;;;;;0.10;0.10;;;;;;;7.26;100.00;98712.41;4983323;28;20046;-85
2021/12/01 06:26:15;;;;;;;0.10;0.10;;;;;;;7.22;100.00;98705.59;4969554;28;20053;-85
2021/12/01 06:28:42;;;;;;;0.15;0.15;;;;;;;7.18;100.00;98707.41;4964954;28;20050;-84
2021/12/01 06:31:09;;;;;;;0.10;0.10;;;;;;;7.15;100.00;98698.88;4966775;28;20054;-83
2021/12/01 06:33:36;;;;;;;0.15;0.10;;;;;;;7.10;100.00;98696.38;4965821;28;20385;-86
2021/12/01 06:36:04;;;;;;;0.38;0.05;;;;;;;7.07;100.00;98692.09;4983703;28;20050;-84
2021/12/01 06:38:32;;;;;;;0.10;0.10;;;;;;;7.03;100.00;98690.47;4984397;28;20050;-84
2021/12/01 06:40:59;;;;;;;0.20;0.10;;;;;;;7.00;100.00;98687.09;4943069;28;20129;-83
2021/12/01 06:43:25;;;;;;;0.20;0.20;;;;;;;6.99;100.00;98672.38;4965834;28;20064;-84
2021/12/01 06:45:52;;;;;;;0.10;0.10;;;;;;;7.04;100.00;98667.91;4963907;28;20049;-85
2021/12/01 06:48:19;;;;;;;0.20;0.20;;;;;;;7.08;100.00;98654.78;4986032;28;20480;-85
2021/12/01 06:50:46;;;;;;;0.25;0.25;;;;;;;7.07;100.00;98662.63;4979091;28;20057;-86
2021/12/01 06:53:13;;;;;;;0.30;0.30;;;;;;;7.13;100.00;98641.63;4960723;28;20077;-85
2021/12/01 06:55:39;;;;;;;0.43;0.32;;;;;;;7.17;100.00;98637.22;4983494;28;20837;-85
2021/12/01 06:58:09;;;;;;;2.85;0.30;;;;;;;7.18;100.00;98638.91;4977517;28;20153;-85
2021/12/01 07:00:37;;;;;;;1.00;0.17;;;;;;;7.19;100.00;98620.66;4994199;28;20054;-85
2021/12/01 07:03:04;;;;;;;1.27;0.38;;;;;;;7.21;100.00;98623.22;4980818;28;20596;-85
2021/12/01 07:05:31;;;;;;;0.30;0.30;;;;;;;7.18;100.00;98618.09;4965372;28;22580;-84
2021/12/01 07:07:58;;;;;;;0.20;0.20;;;;;;;7.17;100.00;98609.47;4981071;28;20093;-85
2021/12/01 07:10:28;;;;;;;0.32;0.30;;;;;;;7.19;100.00;98596.41;4965004;28;20108;-86
2021/12/01 07:12:55;;;;;;;0.17;0.17;;;;;;;7.18;100.00;98585.13;4994629;28;20055;-86
2021/12/01 07:15:22;;;;;;;1.50;0.38;;;;;;;7.20;100.00;98588.53;4979075;28;20073;-86
2021/12/01 07:17:48;;;;;;;0.22;0.22;;;;;;;7.22;99.66;98586.75;4977777;28;20050;-86
2021/12/01 07:20:16;;;;;;;0.55;0.28;;;;;;;7.24;100.00;98582.34;4960553;28;20650;-85
2021/12/01 07:22:51;;;;;;;0.55;0.40;;;;;;;7.25;99.33;98578.00;4980065;28;21735;-85
2021/12/01 07:25:18;;;;;;;0.40;0.40;;;;;;;7.25;99.49;98575.41;4964039;28;20062;-84
2021/12/01 07:27:44;;;;;;;2.30;0.40;;;;;;;7.25;99.85;98573.66;4976547;28;20223;-86
2021/12/01 07:30:14;;;;;;;0.90;0.30;;;;;;;7.26;98.61;98540.66;4960536;28;20034;-87
2021/12/01 07:32:41;;;;;;;0.45;0.40;;;;;;;7.28;97.98;98537.13;4964053;28;20089;-84
2021/12/01 07:35:10;;;;;;;1.17;0.25;;;;;;;7.32;97.38;98547.44;4961687;28;20077;-85
2021/12/01 07:37:37;;;;;;;0.95;0.60;;;;;;;7.33;97.25;98538.75;4979445;28;20752;-85
2021/12/01 07:40:07;;;;;;;0.70;0.63;;;;;;;7.35;96.56;98529.97;4965561;28;20791;-84
2021/12/01 07:42:34;;;;;;;0.20;0.20;;;;;;;7.35;96.47;98535.19;4962444;28;20054;-86
2021/12/01 07:45:01;;;;;;;1.65;0.55;;;;;;;7.39;95.52;98538.53;4981303;28;20046;-85
2021/12/01 07:47:28;;;;;;;0.75;0.38;;;;;;;7.40;94.88;98516.84;4976509;28;20045;-84
2021/12/01 07:49:55;;;;;;;0.43;0.43;;;;;;;7.40;94.76;98509.03;4979949;28;20056;-84
2021/12/01 07:52:25;;;;;;;0.13;0.13;;;;;;;7.44;94.36;98502.81;4962579;28;20053;-84
2021/12/01 07:54:51;;;;;;;0.57;0.50;;;;;;;7.47;94.24;98501.88;4979324;28;20046;-84
2021/12/01 07:57:18;;;;;;;1.17;0.30;;;;;;;7.52;93.63;98492.16;4997561;28;20579;-84
2021/12/01 07:59:48;;;;;;;0.20;0.20;;;;;;;7.52;93.77;98503.44;4977980;28;20053;-86
2021/12/01 08:02:15;;;;;;;0.45;0.35;;;;;;;7.51;93.98;98496.53;4976165;28;20049;-84
2021/12/01 08:04:42;;;;;;;0.65;0.65;;;;;;;7.49;94.31;98490.50;4962122;28;20057;-86
2021/12/01 08:07:09;;;;;;;0.40;0.40;;;;;;;7.49;94.71;98484.47;4957743;28;20046;-86
2021/12/01 08:09:46;;;;;;;0.40;0.40;;;;;;;7.49;94.68;98479.25;4966010;28;20409;-84
2021/12/01 08:12:13;;;;;;;0.15;0.15;;;;;;;7.47;94.45;98486.25;4974632;28;20042;-84
2021/12/01 08:14:41;;;;;;;0.20;0.20;;;;;;;7.50;94.17;98476.59;4978781;28;20050;-85
2021/12/01 08:17:08;;;;;;;0.28;0.20;;;;;;;7.52;94.19;98466.13;4976652;28;20048;-85
2021/12/01 08:19:35;;;;;;;0.50;0.10;;;;;;;7.54;93.44;98475.59;4959659;28;20053;-85
2021/12/01 08:22:01;;;;;;;0.30;0.30;;;;;;;7.52;93.79;98455.72;4965237;28;20077;-85
2021/12/01 08:24:28;;;;;;;0.20;0.10;;;;;;;7.52;93.96;98458.31;4962941;28;20053;-86
2021/12/01 08:26:55;;;;;;;0.63;0.32;;;;;;;7.54;93.80;98453.94;4965212;28;20069;-86
2021/12/01 08:29:22;;;;;;;0.30;0.30;;;;;;;7.52;94.58;98445.31;4965280;28;20046;-86
2021/12/01 08:31:48;;;;;;;1.38;0.28;;;;;;;7.48;94.79;98447.16;4954411;28;20053;-84
2021/12/01 08:34:15;;;;;;;1.45;0.40;;;;;;;7.47;94.93;98445.47;4961412;28;20077;-86
2021/12/01 08:36:42;;;;;;;0.30;0.30;;;;;;;7.49;94.61;98445.41;4962522;28;20054;-84
2021/12/01 08:39:09;;;;;;;1.10;0.30;;;;;;;7.49;93.87;98437.59;4975917;28;21547;-85
2021/12/01 08:41:35;;;;;;;0.20;0.20;;;;;;;7.52;94.04;98393.25;4962419;28;20052;-85
2021/12/01 08:44:04;;;;;;;2.60;0.20;;;;;;;7.52;93.92;98438.38;4976767;28;20679;-84
2021/12/01 08:46:31;;;;;;;0.40;0.40;;;;;;;7.53;93.92;98434.00;4979261;28;20516;-86
2021/12/01 08:48:58;;;;;;;0.52;0.52;;;;;;;7.55;94.18;98421.78;4965198;28;20073;-84
2021/12/01 08:51:26;;;;;;;0.40;0.40;;;;;;;7.60;93.65;98422.47;4958896;28;20052;-86
2021/12/01 08:53:53;;;;;;;1.15;0.63;;;;;;;7.59;93.72;98419.03;4977275;28;20054;-84
2021/12/01 08:56:20;;;;;;;0.35;0.10;;;;;;;7.59;93.79;98412.97;4975491;28;20797;-84
2021/12/01 08:58:47;;;;;;;0.22;0.10;;;;;;;7.56;93.62;98426.94;4961614;28;20080;-85
2021/12/01 09:01:13;;;;;;;0.10;0.10;;;;;;;7.57;94.14;98422.56;4960732;28;20868;-86
2021/12/01 09:03:40;;;;;;;0.20;0.20;;;;;;;7.52;94.60;98414.94;4957319;28;20677;-86
2021/12/01 09:06:07;;;;;;;0.40;0.30;;;;;;;7.50;95.14;98413.28;4961491;28;22544;-85
2021/12/01 09:08:36;;;;;;;2.00;0.20;;;;;;;7.51;95.22;98410.63;4975450;28;20046;-86
2021/12/01 09:11:04;;;;;;;0.20;0.20;;;;;;;7.46;96.14;98396.91;4964076;28;20133;-85
2021/12/01 09:13:35;;;;;;;0.40;0.22;;;;;;;7.40;96.75;98386.69;4977820;28;20046;-85
2021/12/01 09:16:03;;;;;;;0.30;0.30;;;;;;;7.38;96.75;98391.94;4962763;28;20839;-84
2021/12/01 09:18:30;;;;;;;1.10;0.10;;;;;;;7.34;97.46;98400.75;4981992;28;20172;-85
2021/12/01 09:20:59;;;;;;;0.20;0.20;;;;;;;7.31;97.78;98390.44;4961713;28;20572;-85
2021/12/01 09:23:26;;;;;;;0.20;0.20;;;;;;;7.28;98.91;98387.94;4977320;28;20052;-86
2021/12/01 09:25:53;;;;;;;0.38;0.38;;;;;;;7.28;98.86;98386.16;4979103;28;20058;-86
2021/12/01 09:28:23;;;;;;;0.20;0.20;;;;;;;7.24;99.65;98378.53;4975977;28;20571;-86
2021/12/01 09:30:52;;;;;;;0.90;0.30;;;;;;;7.22;99.73;98372.50;4974675;28;20129;-86
2021/12/01 09:33:19;;;;;;;0.20;0.20;;;;;;;7.21;99.52;98368.19;4959348;28;20533;-86
2021/12/01 09:35:46;;;;;;;1.20;0.30;;;;;;;7.21;99.72;98358.66;4962152;28;20058;-87
2021/12/01 09:38:15;;;;;;;0.22;0.22;;;;;;;7.23;99.85;98364.66;4993707;28;20050;-86
2021/12/01 09:40:47;;;;;;;5.03;3.05;;;;;;;7.25;99.43;98355.06;4991626;28;21350;-85
2021/12/01 09:43:16;;;;;;;0.85;0.85;;;;;;;7.31;99.31;98348.78;4974647;28;20053;-86
2021/12/01 09:45:43;;;;;;;0.90;0.30;;;;;;;7.33;99.05;98351.38;4972074;28;20615;-85
2021/12/01 09:48:12;;;;;;;0.40;0.40;;;;;;;7.34;99.31;98332.22;4944325;28;20441;-86
2021/12/01 09:50:39;;;;;;;1.00;0.30;;;;;;;7.38;99.03;98321.66;4940976;28;20185;-86
2021/12/01 09:53:06;;;;;;;0.17;0.15;;;;;;;7.40;99.09;98327.66;4939248;28;20046;-86
2021/12/01 09:55:34;;;;;;;0.90;0.10;;;;;;;7.41;99.23;98320.72;4955705;28;20141;-86
2021/12/01 09:58:11;;;;;;;1.15;0.35;;;;;;;7.41;98.87;98312.91;4953493;28;20101;-86
2021/12/01 10:00:43;;;;;;;0.20;0.20;;;;;;;7.44;99.13;98305.84;4953583;28;20077;-86
2021/12/01 10:03:11;;;;;;;0.20;0.20;;;;;;;7.45;99.19;98299.72;4955829;28;20057;-86
2021/12/01 10:05:48;;;;;;;0.20;0.20;;;;;;;7.47;98.88;98312.72;4939665;28;20046;-84
2021/12/01 10:08:40;;;;;;;0.70;0.60;;;;;;;7.48;99.06;98305.72;4970358;28;20129;-86
2021/12/01 10:11:11;;;;;;;1.83;0.22;;;;;;;7.46;99.12;98297.97;4951830;28;20304;-87
2021/12/01 10:13:42;;;;;;;1.45;0.30;;;;;;;7.46;99.02;98290.19;4941212;28;20053;-88
2021/12/01 10:16:13;;;;;;;0.20;0.20;;;;;;;7.48;99.19;98287.50;4952194;28;20061;-86
2021/12/01 10:18:43;;;;;;;0.22;0.22;;;;;;;7.51;99.03;98290.00;4953973;28;20039;-86
2021/12/01 10:21:16;;;;;;;0.20;0.20;;;;;;;7.60;98.85;98287.94;4957321;28;20125;-86
2021/12/01 10:23:52;;;;;;;0.68;0.20;;;;;;;7.62;98.73;98269.66;4952965;28;20055;-87
2021/12/01 10:26:29;;;;;;;0.20;0.20;;;;;;;7.67;97.84;98265.13;4971065;28;20042;-86
2021/12/01 10:29:04;;;;;;;0.82;0.22;;;;;;;7.70;97.26;98261.56;4952189;28;20786;-86
2021/12/01 10:31:43;;;;;;;0.10;0.10;;;;;;;7.74;96.61;98263.16;4939732;28;22557;-87
2021/12/01 10:34:29;;;;;;;0.20;0.20;;;;;;;7.78;96.06;98259.53;4953806;28;20583;-85
2021/12/01 10:37:25;;;;;;;0.10;0.10;;;;;;;7.81;96.04;98255.97;4974884;28;20449;-86
2021/12/01 10:40:21;;;;;;;0.30;0.10;;;;;;;7.83;95.67;98234.19;4961260;28;20051;-86
2021/12/01 10:43:08;;;;;;;1.67;0.10;;;;;;;7.88;95.66;98249.66;4943061;28;20083;-86
2021/12/01 10:45:45;;;;;;;0.00;0.00;;;;;;;7.90;94.81;98229.59;4959007;28;20050;-84
2021/12/01 10:48:27;;;;;;;0.15;0.15;;;;;;;7.93;94.67;98226.88;4963210;28;20141;-85
2021/12/01 10:50:54;;;;;;;0.22;0.22;;;;;;;7.94;94.32;98225.97;4960923;28;23155;-85
2021/12/01 10:53:25;;;;;;;0.20;0.20;;;;;;;7.97;94.37;98219.81;4974695;28;20042;-85
2021/12/01 10:56:00;;;;;;;0.20;0.10;;;;;;;7.98;93.90;98200.66;4993099;28;20109;-86
2021/12/01 10:58:42;;;;;;;0.20;0.20;;;;;;;8.01;94.09;98190.13;4978557;28;20077;-85
2021/12/01 11:01:24;;;;;;;4.28;0.10;;;;;;;8.06;93.83;98191.63;4983525;28;20045;-86
2021/12/01 11:03:51;;;;;;;0.85;0.52;;;;;;;8.10;93.71;98180.19;4960501;28;20729;-84
2021/12/01 11:06:23;;;;;;;0.00;0.00;;;;;;;8.15;93.78;98174.81;4955098;28;20056;-86
2021/12/01 11:08:57;;;;;;;0.22;0.20;;;;;;;8.22;92.89;98154.56;4963468;28;20046;-86
2021/12/01 11:11:44;;;;;;;0.22;0.22;;;;;;;8.27;92.31;98147.41;4960489;28;20133;-86
2021/12/01 11:14:21;;;;;;;0.45;0.20;;;;;;;8.36;92.05;98144.44;4959888;28;20108;-86
2021/12/01 11:16:48;;;;;;;6.22;0.20;;;;;;;8.45;91.30;98132.78;4974272;28;20073;-86
2021/12/01 11:19:15;;;;;;;0.17;0.17;;;;;;;8.58;90.38;98138.38;4959055;28;20052;-86
2021/12/01 11:21:42;;;;;;;1.27;0.10;;;;;;;8.63;90.12;98135.56;4960341;28;20077;-86
2021/12/01 11:24:14;;;;;;;0.10;0.10;;;;;;;8.60;90.25;98126.13;4956364;28;20776;-86
2021/12/01 11:26:46;;;;;;;0.88;0.22;;;;;;;8.61;90.54;98141.69;4975475;28;20122;-86
2021/12/01 11:29:13;;;;;;;0.10;0.10;;;;;;;8.63;89.58;98122.53;4962107;28;20050;-86
2021/12/01 11:31:43;;;;;;;0.10;0.08;;;;;;;8.57;89.52;98103.63;4972751;28;20047;-86
2021/12/01 11:34:17;;;;;;;0.10;0.10;;;;;;;8.56;89.32;98111.50;4976404;28;20066;-86
2021/12/01 11:36:48;;;;;;;0.55;0.10;;;;;;;8.56;89.54;98090.66;4957214;28;20054;-86
2021/12/01 11:39:25;;;;;;;0.10;0.10;;;;;;;8.54;90.07;98084.63;4961196;28;20791;-86
2021/12/01 11:41:55;;;;;;;0.22;0.10;;;;;;;8.54;90.43;98108.09;4956736;28;20054;-86
2021/12/01 11:44:25;;;;;;;1.13;0.10;;;;;;;8.53;89.95;98093.41;4975323;28;20058;-86
2021/12/01 11:46:52;;;;;;;1.65;0.10;;;;;;;8.54;90.42;98097.69;4960992;28;20058;-86
2021/12/01 11:49:21;;;;;;;0.25;0.25;;;;;;;8.53;89.72;98081.19;4943556;28;20120;-86